Valentine, Texas
Current Conditions -  °F | °C
As of 10:15 PM on Wednesday 22 Oct 2014 (Local Time) from KMRF Reporting Station
Broken Clouds Broken Clouds  
Wind Chill: 16°   Ceiling: 3400
Heat Index: 16°   Visibility: 5mi
Dew Point: 14°   Wind: 0mph
Humidity: 88%   Direction: NA
Pressure: 30.21"   Gusts: NA
Location:  30.59°N, 104.5°W
Report Text: KMRF 230315Z AUTO 00000KT 5SM BKN034 16/14 A3021 RMK AO1
Loading
Personal Weather Stations






























Interactive Weather Map
Tropical Storm Tracking
New forecast layout! Learn more

10-Day Weather Forecast

Advertisements
Track Severe Weather on mobile